createdAt,value
2022-10-03T00:02:47.216Z,47.88
2022-10-03T00:05:33.790Z,46.80
2022-10-03T00:08:09.796Z,47.60
2022-10-03T00:10:55.161Z,48.28
2022-10-03T00:13:45.118Z,47.56
2022-10-03T00:16:30.882Z,49.38
2022-10-03T00:19:47.475Z,50.01
2022-10-03T00:22:31.446Z,49.92
2022-10-03T00:25:24.181Z,50.30
2022-10-03T00:28:11.232Z,52.34
2022-10-03T00:31:01.475Z,50.94
2022-10-03T00:33:55.290Z,50.77
2022-10-03T00:36:43.977Z,53.07
2022-10-03T00:39:30.619Z,52.02
2022-10-03T00:42:08.518Z,53.24
2022-10-03T00:45:03.864Z,54.86
2022-10-03T00:48:05.707Z,58.86
2022-10-03T00:50:53.049Z,53.94
2022-10-03T00:53:25.849Z,52.20
2022-10-03T00:56:12.268Z,50.02
2022-10-03T00:59:08.071Z,47.48
2022-10-03T01:01:49.660Z,46.30
2022-10-03T01:04:35.819Z,46.22
2022-10-03T01:07:15.489Z,45.46
2022-10-03T01:10:02.014Z,45.84
2022-10-03T01:12:54.400Z,45.58
2022-10-03T01:15:45.168Z,46.13
2022-10-03T01:18:31.675Z,46.40
2022-10-03T01:21:14.875Z,50.61
2022-10-03T01:23:54.516Z,50.17
2022-10-03T01:26:47.479Z,52.85
2022-10-03T01:30:09.656Z,52.78
2022-10-03T01:32:56.470Z,51.67
2022-10-03T01:35:41.596Z,51.00
2022-10-03T01:38:23.963Z,52.79
2022-10-03T01:41:04.514Z,51.96
2022-10-03T01:43:46.505Z,54.01
2022-10-03T01:46:23.503Z,52.55
2022-10-03T01:49:19.392Z,52.60
2022-10-03T01:51:54.205Z,52.96
2022-10-03T01:54:34.515Z,53.35
2022-10-03T01:57:24.478Z,53.72
2022-10-03T01:59:56.327Z,54.35
2022-10-03T02:02:30.841Z,57.34
2022-10-03T02:05:07.642Z,56.14
2022-10-03T02:07:56.423Z,56.14
2022-10-03T02:10:43.441Z,55.97
2022-10-03T02:13:23.517Z,56.65
2022-10-03T02:16:16.805Z,57.13
2022-10-03T02:18:52.209Z,57.11
2022-10-03T02:21:24.440Z,57.74
2022-10-03T02:24:16.811Z,58.85
2022-10-03T02:27:06.294Z,61.38
2022-10-03T02:29:53.149Z,61.20
2022-10-03T02:32:53.607Z,62.06
2022-10-03T02:36:07.143Z,63.26
2022-10-03T02:39:08.694Z,64.50
2022-10-03T02:41:57.283Z,63.74
2022-10-03T02:44:41.624Z,64.32
2022-10-03T02:47:44.577Z,64.85
2022-10-03T02:50:24.887Z,65.83
2022-10-03T02:53:02.678Z,65.27
2022-10-03T02:56:08.341Z,66.17
2022-10-03T02:59:14.154Z,65.19
2022-10-03T03:02:11.488Z,65.70
2022-10-03T03:04:54.707Z,65.66
2022-10-03T03:07:38.373Z,66.44
2022-10-03T03:10:23.807Z,66.91
2022-10-03T03:13:13.146Z,68.82
2022-10-03T03:16:08.531Z,69.61
2022-10-03T03:18:48.695Z,69.21
2022-10-03T03:21:42.059Z,70.39
2022-10-03T03:24:19.612Z,69.31
2022-10-03T03:27:06.034Z,69.55
2022-10-03T03:30:03.591Z,70.39
2022-10-03T03:32:55.062Z,70.42
2022-10-03T03:35:34.336Z,71.77
2022-10-03T03:38:13.977Z,73.50
2022-10-03T03:41:06.912Z,74.72
2022-10-03T03:44:01.478Z,74.50
2022-10-03T03:47:04.928Z,75.05
2022-10-03T03:50:01.307Z,74.18
2022-10-03T03:52:48.568Z,73.73
2022-10-03T03:55:34.847Z,72.99
2022-10-03T03:58:33.549Z,71.77
2022-10-03T04:01:33.029Z,71.39
2022-10-03T04:04:07.396Z,71.92
2022-10-03T04:06:49.318Z,72.44
2022-10-03T04:09:44.581Z,72.45
2022-10-03T04:12:37.818Z,72.91
2022-10-03T04:15:20.640Z,72.27
2022-10-03T04:18:18.239Z,72.13
2022-10-03T04:21:18.810Z,72.29
2022-10-03T04:24:07.863Z,71.77
2022-10-03T04:27:01.878Z,71.96
2022-10-03T04:29:56.792Z,71.20
2022-10-03T04:32:39.546Z,71.00
2022-10-03T04:35:35.075Z,70.83
2022-10-03T04:38:45.620Z,70.77
2022-10-03T04:41:19.650Z,70.42
2022-10-03T04:43:59.780Z,70.41
2022-10-03T04:46:40.992Z,69.63
2022-10-03T04:49:16.121Z,70.33
2022-10-03T04:52:14.018Z,69.70
2022-10-03T04:55:17.180Z,69.74
2022-10-03T04:58:00.445Z,69.86
2022-10-03T05:00:42.535Z,70.05
2022-10-03T05:03:54.306Z,70.39
2022-10-03T05:06:53.789Z,70.79
2022-10-03T05:09:43.607Z,70.98
2022-10-03T05:12:17.920Z,71.42
2022-10-03T05:14:59.970Z,71.39
2022-10-03T05:17:46.746Z,71.73
2022-10-03T05:20:44.762Z,71.40
2022-10-03T05:23:47.129Z,71.41
2022-10-03T05:26:51.418Z,71.41
2022-10-03T05:29:41.189Z,71.60
2022-10-03T05:32:38.134Z,72.19
2022-10-03T05:35:33.262Z,71.98
2022-10-03T05:38:21.086Z,71.94
2022-10-03T05:41:28.389Z,73.18
2022-10-03T05:44:03.100Z,73.53
2022-10-03T05:47:07.739Z,72.34
2022-10-03T05:49:45.085Z,71.86
2022-10-03T05:52:22.472Z,71.58
2022-10-03T05:55:23.738Z,71.66
2022-10-03T05:58:44.188Z,71.69
2022-10-03T06:01:33.143Z,71.99
2022-10-03T06:04:18.869Z,72.77
2022-10-03T06:07:14.083Z,72.60
2022-10-03T06:10:12.448Z,73.00
2022-10-03T06:13:03.859Z,72.46
2022-10-03T06:15:44.700Z,71.65
2022-10-03T06:18:32.825Z,71.51
2022-10-03T06:21:36.719Z,70.95
2022-10-03T06:24:32.862Z,71.14
2022-10-03T06:27:27.720Z,70.93
2022-10-03T06:30:06.854Z,71.02
2022-10-03T06:32:40.957Z,70.86
2022-10-03T06:35:39.603Z,70.44
2022-10-03T06:38:26.464Z,71.30
2022-10-03T06:41:00.473Z,70.76
2022-10-03T06:44:08.479Z,71.18
2022-10-03T06:46:49.471Z,70.91
2022-10-03T06:49:35.454Z,70.70
2022-10-03T06:52:25.944Z,70.75
2022-10-03T06:55:29.588Z,70.95
2022-10-03T06:58:51.817Z,71.08
2022-10-03T07:01:44.799Z,70.91
2022-10-03T07:04:39.933Z,71.12
2022-10-03T07:07:51.243Z,70.73
2022-10-03T07:10:45.473Z,70.83
2022-10-03T07:13:52.411Z,70.18
2022-10-03T07:16:57.953Z,69.85
2022-10-03T07:19:54.390Z,69.11
2022-10-03T07:22:56.628Z,68.55
2022-10-03T07:25:39.807Z,68.59
2022-10-03T07:28:08.336Z,68.10
2022-10-03T07:30:54.693Z,68.51
2022-10-03T07:33:47.713Z,68.32
2022-10-03T07:37:02.039Z,68.07
2022-10-03T07:40:07.269Z,67.80
2022-10-03T07:43:04.959Z,67.38
2022-10-03T07:45:39.701Z,68.31
2022-10-03T07:48:18.587Z,67.40
2022-10-03T07:51:02.675Z,67.92
2022-10-03T07:54:01.665Z,70.69
2022-10-03T07:56:58.079Z,71.46
2022-10-03T07:59:57.729Z,73.28
2022-10-03T08:02:49.539Z,74.57
2022-10-03T08:05:29.827Z,77.35
2022-10-03T08:08:22.597Z,78.17
2022-10-03T08:11:24.539Z,79.21
2022-10-03T08:14:05.173Z,80.64
2022-10-03T08:17:11.164Z,81.11
2022-10-03T08:20:07.615Z,82.18
2022-10-03T08:22:47.743Z,82.99
2022-10-03T08:25:37.532Z,82.57
2022-10-03T08:28:35.182Z,83.70
2022-10-03T08:31:26.971Z,83.29
2022-10-03T08:34:13.759Z,83.50
2022-10-03T08:37:06.364Z,83.59
2022-10-03T08:39:34.782Z,83.09
2022-10-03T08:42:21.826Z,83.55
2022-10-03T08:45:01.361Z,83.84
2022-10-03T08:47:29.791Z,84.11
2022-10-03T08:50:19.647Z,84.78
2022-10-03T08:53:12.031Z,84.54
2022-10-03T08:56:06.906Z,85.30
2022-10-03T08:59:05.534Z,84.94
2022-10-03T09:02:12.373Z,84.69
2022-10-03T09:05:17.979Z,85.04
2022-10-03T09:08:22.912Z,84.96
2022-10-03T09:11:04.919Z,84.96
2022-10-03T09:14:10.194Z,86.44
2022-10-03T09:16:45.054Z,86.28
2022-10-03T09:19:53.539Z,85.63
2022-10-03T09:22:34.349Z,84.63
2022-10-03T09:25:23.337Z,84.96
2022-10-03T09:28:23.179Z,84.76
2022-10-03T09:31:34.163Z,83.95
2022-10-03T09:34:15.505Z,83.99
2022-10-03T09:36:49.754Z,84.35
2022-10-03T09:39:46.813Z,84.99
2022-10-03T09:42:49.417Z,84.57
2022-10-03T09:45:55.689Z,85.38
2022-10-03T09:48:42.618Z,85.54
2022-10-03T09:51:21.352Z,85.26
2022-10-03T09:53:49.429Z,84.90
2022-10-03T09:56:36.860Z,85.54
2022-10-03T09:59:36.590Z,86.00
2022-10-03T10:02:24.559Z,85.48
2022-10-03T10:05:19.218Z,85.63
2022-10-03T10:08:06.079Z,85.85
2022-10-03T10:10:56.629Z,85.78
2022-10-03T10:14:08.541Z,85.68
2022-10-03T10:17:05.713Z,86.04
2022-10-03T10:19:58.466Z,86.93
2022-10-03T10:22:38.558Z,86.91
2022-10-03T10:25:18.939Z,87.10
2022-10-03T10:28:13.538Z,85.80
2022-10-03T10:31:20.330Z,83.78
2022-10-03T10:34:21.649Z,82.48
2022-10-03T10:36:59.365Z,82.30
2022-10-03T10:40:14.109Z,82.58
2022-10-03T10:43:19.744Z,80.60
2022-10-03T10:46:14.420Z,79.37
2022-10-03T10:49:03.831Z,82.89
2022-10-03T10:51:52.901Z,81.54
2022-10-03T10:54:24.292Z,82.20
2022-10-03T10:57:30.257Z,82.09
2022-10-03T11:00:27.841Z,82.24
2022-10-03T11:03:17.530Z,82.53
2022-10-03T11:06:02.331Z,83.35
2022-10-03T11:08:54.494Z,83.65
2022-10-03T11:12:15.869Z,84.98
2022-10-03T11:15:00.440Z,87.10
2022-10-03T11:17:31.553Z,87.36
2022-10-03T11:20:44.058Z,87.96
2022-10-03T11:23:42.042Z,87.26
2022-10-03T11:26:47.225Z,87.05
2022-10-03T11:29:52.193Z,86.57
2022-10-03T11:33:08.217Z,86.66
2022-10-03T11:36:21.389Z,82.93
2022-10-03T11:39:10.231Z,82.36
2022-10-03T11:41:54.060Z,82.27
2022-10-03T11:44:43.033Z,79.77
2022-10-03T11:47:53.189Z,82.34
2022-10-03T11:50:36.161Z,81.20
2022-10-03T11:53:25.500Z,79.09
2022-10-03T11:56:22.813Z,77.80
2022-10-03T11:58:51.832Z,76.88
2022-10-03T12:01:28.575Z,76.79
2022-10-03T12:04:19.111Z,75.98
2022-10-03T12:07:17.843Z,76.18
2022-10-03T12:10:14.679Z,75.87
2022-10-03T12:12:51.574Z,74.73
2022-10-03T12:15:51.748Z,72.58
2022-10-03T12:18:46.385Z,71.94
2022-10-03T12:21:39.555Z,71.81
2022-10-03T12:24:35.701Z,71.19
2022-10-03T12:27:30.208Z,70.29
2022-10-03T12:30:03.376Z,70.80
2022-10-03T12:32:38.236Z,72.43
2022-10-03T12:35:31.170Z,72.34
2022-10-03T12:38:08.595Z,71.49
2022-10-03T12:40:45.685Z,70.08
2022-10-03T12:43:37.207Z,73.18
2022-10-03T12:46:38.541Z,73.71
2022-10-03T12:49:13.779Z,73.97
2022-10-03T12:52:01.575Z,72.12
2022-10-03T12:54:55.793Z,73.40
2022-10-03T12:57:52.103Z,71.65
2022-10-03T13:00:45.232Z,75.32
2022-10-03T13:03:24.405Z,76.31
2022-10-03T13:06:50.956Z,77.37
2022-10-03T13:09:25.599Z,78.83
2022-10-03T13:12:03.547Z,79.41
2022-10-03T13:15:25.811Z,80.07
2022-10-03T13:18:01.778Z,80.12
2022-10-03T13:20:40.672Z,81.35
2022-10-03T13:23:17.917Z,78.36
2022-10-03T13:26:15.914Z,77.68
2022-10-03T13:29:14.482Z,77.21
2022-10-03T13:32:08.890Z,76.15
2022-10-03T13:34:48.663Z,75.50
2022-10-03T13:38:00.129Z,75.47
2022-10-03T13:40:35.022Z,74.84
2022-10-03T13:43:09.554Z,74.00
2022-10-03T13:45:46.289Z,73.90
2022-10-03T13:48:28.858Z,74.11
2022-10-03T13:51:10.618Z,73.90
2022-10-03T13:53:54.405Z,75.10
2022-10-03T13:56:53.782Z,73.84
2022-10-03T14:00:02.454Z,77.68
2022-10-03T14:03:02.924Z,76.44
2022-10-03T14:06:01.917Z,78.01
2022-10-03T14:08:38.907Z,79.57
2022-10-03T14:11:16.202Z,79.13
2022-10-03T14:13:56.962Z,80.16
2022-10-03T14:16:50.932Z,79.51
2022-10-03T14:19:24.887Z,74.25
2022-10-03T14:22:08.709Z,72.30
2022-10-03T14:24:40.606Z,71.45
2022-10-03T14:27:49.194Z,70.77
2022-10-03T14:30:24.122Z,70.03
2022-10-03T14:32:58.338Z,69.36
2022-10-03T14:36:05.278Z,68.01
2022-10-03T14:39:01.875Z,68.45
2022-10-03T14:41:47.707Z,65.91
2022-10-03T14:44:24.265Z,63.04
2022-10-03T14:47:00.343Z,61.36
2022-10-03T14:49:54.969Z,61.29
2022-10-03T14:52:51.794Z,60.01
2022-10-03T14:55:30.126Z,60.34
2022-10-03T14:58:14.549Z,58.24
2022-10-03T15:00:50.043Z,58.45
2022-10-03T15:03:18.477Z,58.41
2022-10-03T15:06:20.759Z,58.94
2022-10-03T15:08:55.260Z,59.49
2022-10-03T15:11:36.978Z,60.78
2022-10-03T15:14:11.385Z,60.44
2022-10-03T15:17:02.142Z,59.65
2022-10-03T15:19:49.082Z,59.20
2022-10-03T15:22:42.970Z,58.64
2022-10-03T15:25:22.199Z,58.22
2022-10-03T15:27:54.703Z,58.67
2022-10-03T15:30:31.574Z,57.34
2022-10-03T15:33:29.727Z,56.86
2022-10-03T15:36:06.663Z,55.64
2022-10-03T15:38:40.636Z,56.26
2022-10-03T15:41:17.455Z,56.08
2022-10-03T15:43:52.299Z,55.36
2022-10-03T15:46:58.085Z,54.85
2022-10-03T15:49:31.807Z,53.02
2022-10-03T15:52:19.511Z,52.55
2022-10-03T15:55:06.698Z,53.52
2022-10-03T15:57:46.296Z,54.51
2022-10-03T16:00:27.572Z,51.74
2022-10-03T16:03:07.543Z,52.78
2022-10-03T16:05:38.441Z,50.91
2022-10-03T16:08:14.648Z,51.83
2022-10-03T16:10:59.550Z,50.79
2022-10-03T16:13:47.231Z,50.75
2022-10-03T16:16:18.698Z,50.48
2022-10-03T16:18:53.116Z,50.14
2022-10-03T16:21:43.177Z,50.04
2022-10-03T16:24:24.441Z,47.96
2022-10-03T16:27:15.025Z,48.71
2022-10-03T16:29:51.201Z,48.46
2022-10-03T16:32:25.031Z,48.35
2022-10-03T16:34:54.203Z,47.27
2022-10-03T16:37:27.687Z,47.16
2022-10-03T16:40:04.029Z,46.65
2022-10-03T16:42:45.635Z,46.60
2022-10-03T16:45:34.931Z,46.25
2022-10-03T16:48:31.002Z,45.59
2022-10-03T16:51:00.093Z,45.55
2022-10-03T16:53:29.976Z,44.50
2022-10-03T16:56:25.558Z,45.78
2022-10-03T16:58:57.139Z,45.02
2022-10-03T17:01:37.660Z,46.84
2022-10-03T17:04:17.830Z,46.06
2022-10-03T17:06:51.929Z,45.58
2022-10-03T17:09:25.979Z,43.29
2022-10-03T17:12:00.504Z,44.21
2022-10-03T17:14:38.264Z,42.57
2022-10-03T17:17:09.482Z,41.71
2022-10-03T17:19:43.584Z,39.12
2022-10-03T17:22:19.842Z,38.01
2022-10-03T17:24:55.007Z,38.45
2022-10-03T17:27:24.047Z,38.58
2022-10-03T17:30:05.883Z,38.75
2022-10-03T17:32:44.465Z,37.28
2022-10-03T17:35:26.924Z,39.08
2022-10-03T17:38:49.298Z,39.66
2022-10-03T17:41:12.252Z,39.80
2022-10-03T17:44:07.067Z,39.06
2022-10-03T17:46:44.650Z,39.64
2022-10-03T17:49:44.885Z,40.35
2022-10-03T17:52:21.831Z,40.91
2022-10-03T17:54:55.846Z,40.84
2022-10-03T17:57:45.952Z,40.40
2022-10-03T18:00:22.613Z,39.58
2022-10-03T18:02:58.562Z,39.75
2022-10-03T18:05:36.769Z,38.67
2022-10-03T18:08:14.386Z,39.34
2022-10-03T18:10:50.809Z,38.86
2022-10-03T18:13:40.891Z,37.99
2022-10-03T18:16:29.852Z,38.10
2022-10-03T18:19:22.921Z,36.55
2022-10-03T18:22:04.640Z,38.27
2022-10-03T18:24:43.421Z,36.31
2022-10-03T18:27:32.804Z,35.58
2022-10-03T18:30:08.819Z,34.47
2022-10-03T18:32:41.372Z,33.66
2022-10-03T18:35:21.673Z,32.77
2022-10-03T18:38:15.807Z,32.53
2022-10-03T18:40:59.065Z,33.45
2022-10-03T18:43:59.842Z,34.08
2022-10-03T18:46:41.026Z,35.01
2022-10-03T18:49:32.819Z,34.14
2022-10-03T18:52:38.653Z,34.92
2022-10-03T18:55:20.758Z,35.02
2022-10-03T18:58:10.214Z,35.49
2022-10-03T19:00:53.499Z,35.24
2022-10-03T19:03:29.967Z,34.96
2022-10-03T19:06:20.344Z,35.95
2022-10-03T19:08:55.921Z,36.19
2022-10-03T19:11:32.418Z,34.57
2022-10-03T19:14:18.774Z,34.82
2022-10-03T19:17:10.263Z,34.77
2022-10-03T19:19:59.099Z,35.02
2022-10-03T19:22:38.780Z,36.10
2022-10-03T19:25:17.863Z,35.48
2022-10-03T19:27:54.217Z,35.96
2022-10-03T19:30:25.283Z,35.46
2022-10-03T19:33:03.864Z,35.77
2022-10-03T19:35:35.313Z,36.37
2022-10-03T19:38:06.041Z,36.57
2022-10-03T19:41:06.034Z,36.52
2022-10-03T19:43:51.298Z,35.97
2022-10-03T19:46:34.977Z,36.09
2022-10-03T19:49:15.319Z,36.86
2022-10-03T19:51:43.835Z,36.41
2022-10-03T19:54:32.025Z,36.26
2022-10-03T19:57:04.735Z,37.22
2022-10-03T19:59:46.222Z,37.96
2022-10-03T20:02:15.011Z,37.34
2022-10-03T20:04:43.685Z,38.02
2022-10-03T20:07:19.004Z,38.04
2022-10-03T20:09:58.696Z,37.56
2022-10-03T20:12:30.960Z,38.17
2022-10-03T20:15:14.502Z,37.57
2022-10-03T20:17:43.904Z,38.47
2022-10-03T20:20:21.381Z,38.58
2022-10-03T20:22:50.812Z,38.31
2022-10-03T20:25:40.091Z,38.68
2022-10-03T20:28:18.055Z,39.00
2022-10-03T20:30:50.115Z,40.42
2022-10-03T20:33:39.124Z,40.11
2022-10-03T20:36:26.742Z,40.94
2022-10-03T20:39:07.234Z,41.26
2022-10-03T20:41:44.766Z,41.41
2022-10-03T20:44:22.313Z,40.89
2022-10-03T20:46:56.038Z,40.88
2022-10-03T20:49:27.473Z,39.71
2022-10-03T20:51:55.864Z,39.62
2022-10-03T20:54:48.550Z,40.48
2022-10-03T20:58:07.697Z,39.32
2022-10-03T21:00:46.272Z,40.73
2022-10-03T21:03:17.877Z,39.25
2022-10-03T21:05:53.876Z,40.36
2022-10-03T21:08:28.407Z,40.29
2022-10-03T21:11:14.793Z,39.46
2022-10-03T21:13:57.517Z,39.66
2022-10-03T21:16:34.057Z,39.28
2022-10-03T21:19:06.620Z,39.27
2022-10-03T21:21:42.920Z,39.86
2022-10-03T21:24:40.704Z,40.58
2022-10-03T21:27:15.708Z,39.66
2022-10-03T21:30:06.969Z,40.47
2022-10-03T21:33:02.204Z,40.62
2022-10-03T21:35:38.847Z,40.82
2022-10-03T21:38:18.848Z,41.33
2022-10-03T21:40:59.142Z,41.94
2022-10-03T21:44:14.140Z,40.73
2022-10-03T21:47:29.028Z,41.94
2022-10-03T21:50:01.474Z,41.58
2022-10-03T21:52:58.008Z,41.00
2022-10-03T21:55:52.789Z,43.10
2022-10-03T21:58:31.802Z,45.79
2022-10-03T22:01:08.783Z,44.63
2022-10-03T22:03:49.589Z,43.03
2022-10-03T22:06:25.847Z,45.12
2022-10-03T22:09:05.838Z,46.20
2022-10-03T22:11:37.675Z,48.45
2022-10-03T22:14:35.003Z,46.15
2022-10-03T22:17:37.933Z,43.91
2022-10-03T22:20:12.898Z,43.44
2022-10-03T22:23:06.658Z,41.76
2022-10-03T22:25:50.080Z,42.38
2022-10-03T22:28:52.380Z,43.77
2022-10-03T22:31:44.256Z,45.16
2022-10-03T22:34:43.163Z,46.64
2022-10-03T22:37:11.957Z,45.12
2022-10-03T22:39:40.777Z,45.96
2022-10-03T22:42:09.857Z,45.42
2022-10-03T22:44:43.939Z,45.91
2022-10-03T22:47:25.114Z,46.49
2022-10-03T22:49:59.692Z,46.89
2022-10-03T22:52:33.951Z,47.43
2022-10-03T22:55:06.007Z,47.68
2022-10-03T22:57:36.133Z,47.02
2022-10-03T23:00:13.835Z,47.31
2022-10-03T23:02:54.204Z,47.57
2022-10-03T23:05:54.262Z,47.52
2022-10-03T23:08:46.012Z,47.54
2022-10-03T23:11:41.889Z,47.32
2022-10-03T23:14:24.362Z,47.45
2022-10-03T23:17:29.495Z,47.00
2022-10-03T23:20:21.562Z,46.53
2022-10-03T23:22:56.544Z,46.67
2022-10-03T23:25:34.247Z,47.23
2022-10-03T23:28:38.338Z,46.61
2022-10-03T23:31:06.945Z,46.39
2022-10-03T23:33:35.749Z,45.75
2022-10-03T23:36:16.437Z,45.43
2022-10-03T23:38:44.943Z,45.40
2022-10-03T23:41:29.416Z,45.18
2022-10-03T23:43:59.991Z,45.54
2022-10-03T23:46:32.382Z,45.48
2022-10-03T23:49:03.562Z,44.95
2022-10-03T23:51:37.730Z,45.96
2022-10-03T23:54:09.760Z,44.99
2022-10-03T23:56:40.987Z,44.84
2022-10-03T23:59:20.964Z,44.99
